Time;durP1;ratioP1;P1;durP2;ratioP2;P2;SDS_P1;SDS_P2;PMS_P1;PMS_P2;Temp;Humidity;BMP_temperature;BMP_pressure;BME280_temperature;BME280_humidity;BME280_pressure;Samples;Min_cycle;Max_cycle;Signal;HPM_P1;HPM_P2
2022/11/23 00:01:11;;;;;;;3.80;3.70;;;;;;;6.65;100.00;99361.81;6170418;23;20028;-76
2022/11/23 00:03:38;;;;;;;3.80;3.70;;;;;;;6.90;100.00;99395.16;6194709;23;20077;-77
2022/11/23 00:06:04;;;;;;;4.60;4.30;;;;;;;6.62;100.00;99338.56;6141854;23;20084;-76
2022/11/23 00:08:31;;;;;;;4.10;3.90;;;;;;;6.37;100.00;99306.06;6172159;23;20028;-76
2022/11/23 00:10:58;;;;;;;4.25;4.05;;;;;;;7.24;100.00;99433.16;6193986;23;20031;-77
2022/11/23 00:13:24;;;;;;;4.00;3.80;;;;;;;3.20;100.00;98762.91;6166314;23;20028;-77
2022/11/23 00:15:50;;;;;;;4.10;3.90;;;;;;;7.26;100.00;99425.25;6155335;23;20021;-73
2022/11/23 00:18:17;;;;;;;10.98;4.32;;;;;;;7.43;100.00;99445.94;6180830;23;20057;-73
2022/11/23 00:20:44;;;;;;;4.05;3.85;;;;;;;6.31;100.00;99280.34;6147998;23;20038;-74
2022/11/23 00:23:10;;;;;;;3.85;3.75;;;;;;;6.94;100.00;99349.72;6183580;23;20020;-73
2022/11/23 00:25:37;;;;;;;4.43;4.05;;;;;;;7.54;100.00;99443.53;6150488;23;20027;-73
2022/11/23 00:28:03;;;;;;;3.75;3.65;;;;;;;6.76;100.00;99317.72;6155258;23;20041;-73
2022/11/23 00:30:29;;;;;;;3.78;3.67;;;;;;;7.02;100.00;99365.75;6189504;23;20024;-73
2022/11/23 00:32:56;;;;;;;4.03;3.83;;;;;;;7.57;100.00;99456.41;6171535;23;20029;-74
2022/11/23 00:35:22;;;;;;;3.83;3.72;;;;;;;7.12;100.00;99376.47;6183747;23;20098;-73
2022/11/23 00:37:49;;;;;;;3.90;3.70;;;;;;;7.10;100.00;99366.13;6151468;23;20013;-73
2022/11/23 00:40:15;;;;;;;3.83;3.70;;;;;;;7.50;100.00;99439.44;6153856;23;20004;-73
2022/11/23 00:42:42;;;;;;;3.90;3.80;;;;;;;7.24;100.00;99396.63;6148995;23;20606;-73
2022/11/23 00:45:08;;;;;;;4.28;4.05;;;;;;;7.08;100.00;99370.59;6150921;23;20109;-73
2022/11/23 00:47:35;;;;;;;3.95;3.78;;;;;;;7.64;100.00;99482.13;6162391;23;20032;-73
2022/11/23 00:50:02;;;;;;;3.53;3.42;;;;;;;7.68;100.00;99460.16;6154839;23;20033;-73
2022/11/23 00:52:28;;;;;;;5.82;3.85;;;;;;;7.30;100.00;99411.91;6180874;23;20586;-74
2022/11/23 00:54:55;;;;;;;4.65;4.40;;;;;;;7.44;100.00;99426.75;6154388;23;20029;-73
2022/11/23 00:57:21;;;;;;;4.07;3.88;;;;;;;7.62;100.00;99457.88;6182820;23;20087;-73
2022/11/23 00:59:47;;;;;;;4.15;3.95;;;;;;;7.48;100.00;99438.69;6155226;23;20024;-73
2022/11/23 01:02:14;;;;;;;6.10;3.72;;;;;;;7.44;100.00;99437.19;6197207;23;20098;-73
2022/11/23 01:04:40;;;;;;;4.10;3.90;;;;;;;7.36;100.00;99431.59;6159348;23;20033;-74
2022/11/23 01:07:06;;;;;;;4.95;4.55;;;;;;;6.85;100.00;99343.25;6189670;23;20689;-73
2022/11/23 01:09:33;;;;;;;4.18;3.97;;;;;;;7.42;100.00;99446.88;6159868;23;20041;-73
2022/11/23 01:11:59;;;;;;;3.95;3.75;;;;;;;7.24;100.00;99430.53;6153754;23;20065;-73
2022/11/23 01:14:26;;;;;;;4.10;3.90;;;;;;;7.68;100.00;99510.59;6152135;23;20083;-73
2022/11/23 01:16:52;;;;;;;4.53;4.32;;;;;;;7.32;100.00;99445.75;6152339;23;20009;-73
2022/11/23 01:19:20;;;;;;;5.50;4.20;;;;;;;7.71;100.00;99518.25;6185943;23;20617;-73
2022/11/23 01:21:47;;;;;;;4.00;3.80;;;;;;;7.72;100.00;99517.31;6150779;23;20032;-73
2022/11/23 01:24:17;;;;;;;4.20;4.00;;;;;;;7.73;100.00;99520.78;6182288;23;20200;-73
2022/11/23 01:26:44;;;;;;;4.20;4.00;;;;;;;7.24;100.00;99432.31;6160304;23;20031;-73
2022/11/23 01:29:11;;;;;;;3.90;3.70;;;;;;;7.51;100.00;99489.88;6182302;23;20575;-73
2022/11/23 01:31:39;;;;;;;4.30;3.90;;;;;;;7.79;100.00;99530.84;6157876;23;20046;-73
2022/11/23 01:34:13;;;;;;;4.30;3.90;;;;;;;7.81;100.00;99531.59;6177310;23;20017;-73
2022/11/23 01:36:40;;;;;;;4.00;3.80;;;;;;;7.74;100.00;99519.84;6157644;23;20521;-74
2022/11/23 01:39:07;;;;;;;3.70;3.60;;;;;;;7.52;100.00;99484.56;6179863;23;20016;-73
2022/11/23 01:41:36;;;;;;;3.70;3.60;;;;;;;7.83;100.00;99524.50;6152734;23;20042;-73
2022/11/23 01:44:25;;;;;;;4.00;3.80;;;;;;;7.81;100.00;99533.38;6180497;23;20106;-73
2022/11/23 01:46:51;;;;;;;4.00;3.80;;;;;;;7.78;100.00;99527.41;6148458;23;20009;-73
2022/11/23 01:49:18;;;;;;;4.00;3.80;;;;;;;7.54;100.00;99495.75;6162579;23;20025;-73
2022/11/23 01:51:49;;;;;;;4.22;4.03;;;;;;;7.57;100.00;99518.22;6179165;23;20032;-73
2022/11/23 01:54:37;;;;;;;4.20;4.00;;;;;;;7.50;100.00;99496.88;6129933;23;20017;-74
2022/11/23 01:57:09;;;;;;;4.45;4.18;;;;;;;7.30;100.00;99464.09;6160580;23;20058;-74
2022/11/23 01:59:36;;;;;;;4.25;4.05;;;;;;;7.79;100.00;99538.69;6159378;23;20025;-73
2022/11/23 02:02:03;;;;;;;4.60;4.30;;;;;;;7.53;100.00;99533.22;6152868;23;20116;-73
2022/11/23 02:04:33;;;;;;;4.18;3.95;;;;;;;7.43;100.00;99512.97;6190357;23;20023;-74
2022/11/23 02:07:01;;;;;;;4.13;3.92;;;;;;;7.16;100.00;99457.06;6147917;23;20098;-72
2022/11/23 02:09:31;;;;;;;4.05;3.85;;;;;;;7.70;100.00;99555.75;6175678;23;20028;-72
2022/11/23 02:11:58;;;;;;;4.68;4.38;;;;;;;7.76;100.00;99554.56;6151102;23;20025;-72
2022/11/23 02:14:24;;;;;;;4.50;4.15;;;;;;;7.78;100.00;99555.31;6188487;23;20031;-72
2022/11/23 02:16:51;;;;;;;4.03;3.83;;;;;;;7.77;100.00;99571.88;6147322;23;20079;-74
2022/11/23 02:19:32;;;;;;;4.07;3.88;;;;;;;6.60;100.00;99359.47;6185414;23;20728;-74
2022/11/23 02:21:59;;;;;;;3.77;3.67;;;;;;;7.47;100.00;99507.47;6131163;23;20028;-72
2022/11/23 02:24:31;;;;;;;3.90;3.75;;;;;;;7.60;100.00;99528.50;6173967;23;20601;-74
2022/11/23 02:26:58;;;;;;;4.20;4.00;;;;;;;7.76;100.00;99558.00;6155223;23;20027;-73
2022/11/23 02:29:26;;;;;;;3.80;3.70;;;;;;;7.67;100.00;99539.41;6179315;23;20020;-72
2022/11/23 02:31:53;;;;;;;4.10;3.90;;;;;;;7.33;100.00;99486.56;6163513;23;20107;-75
2022/11/23 02:34:19;;;;;;;7.47;3.88;;;;;;;7.69;100.00;99553.22;6176293;23;20650;-72
2022/11/23 02:36:49;;;;;;;4.07;3.88;;;;;;;7.12;100.00;99458.19;6147574;23;20033;-72
2022/11/23 02:39:35;;;;;;;4.13;3.92;;;;;;;7.06;100.00;99448.09;6180378;23;20599;-72
2022/11/23 02:42:02;;;;;;;4.90;4.35;;;;;;;6.98;100.00;99432.88;6154592;23;20042;-73
2022/11/23 02:44:48;;;;;;;11.70;4.07;;;;;;;7.62;100.00;99536.22;6158423;23;20024;-72
2022/11/23 02:47:14;;;;;;;3.97;3.78;;;;;;;7.30;100.00;99490.19;6165776;23;20028;-74
2022/11/23 02:49:44;;;;;;;4.30;4.10;;;;;;;7.72;100.00;99558.28;6161124;23;20005;-73
2022/11/23 02:52:11;;;;;;;4.05;3.85;;;;;;;7.69;100.00;99564.50;6182513;23;20070;-72
2022/11/23 02:54:38;;;;;;;4.28;4.07;;;;;;;7.39;100.00;99509.69;6128913;23;20029;-73
2022/11/23 02:57:04;;;;;;;3.80;3.70;;;;;;;7.54;100.00;99541.91;6184302;23;20026;-73
2022/11/23 02:59:32;;;;;;;4.40;3.92;;;;;;;7.69;100.00;99574.13;6144322;23;20407;-73
2022/11/23 03:02:00;;;;;;;4.40;4.10;;;;;;;7.16;100.00;99477.13;6157637;23;20048;-72
2022/11/23 03:04:27;;;;;;;4.30;4.05;;;;;;;7.56;100.00;99560.94;6197331;23;20030;-73
2022/11/23 03:06:54;;;;;;;4.50;4.10;;;;;;;7.22;100.00;99491.56;6130809;23;20128;-73
2022/11/23 03:09:20;;;;;;;4.20;4.00;;;;;;;7.68;100.00;99572.44;6195794;23;20077;-72
2022/11/23 03:11:47;;;;;;;4.07;3.88;;;;;;;7.67;100.00;99570.75;6156963;23;20027;-72
2022/11/23 03:14:13;;;;;;;10.38;3.92;;;;;;;7.67;100.00;99574.19;6189296;23;20037;-72
2022/11/23 03:16:40;;;;;;;4.20;4.00;;;;;;;7.29;100.00;99519.00;6157889;23;20028;-72
2022/11/23 03:19:06;;;;;;;4.63;4.32;;;;;;;7.10;100.00;99488.75;6183878;23;20061;-73
2022/11/23 03:21:33;;;;;;;5.28;4.43;;;;;;;7.66;100.00;99579.50;6158075;23;20032;-72
2022/11/23 03:23:59;;;;;;;3.90;3.80;;;;;;;7.67;100.00;99575.97;6161414;23;20065;-72
2022/11/23 03:26:25;;;;;;;4.20;3.95;;;;;;;7.41;100.00;99548.75;6180616;23;20054;-73
2022/11/23 03:28:52;;;;;;;4.20;4.00;;;;;;;7.54;100.00;99562.81;6157395;23;20019;-73
2022/11/23 03:31:18;;;;;;;4.03;3.83;;;;;;;7.28;100.00;99522.53;6187952;23;20061;-73
2022/11/23 03:33:45;;;;;;;4.10;3.85;;;;;;;7.42;100.00;99547.81;6157311;23;20056;-73
2022/11/23 03:36:11;;;;;;;4.00;3.85;;;;;;;7.10;100.00;99493.97;6182472;23;20697;-73
2022/11/23 03:38:37;;;;;;;3.88;3.75;;;;;;;7.35;100.00;99547.34;6152149;23;20025;-73
2022/11/23 03:41:04;;;;;;;4.00;3.80;;;;;;;7.44;100.00;99553.78;6183483;23;20521;-73
2022/11/23 03:43:30;;;;;;;4.07;3.88;;;;;;;7.52;100.00;99573.31;6151807;23;20115;-73
2022/11/23 03:45:57;;;;;;;3.75;3.65;;;;;;;7.63;100.00;99584.91;6156546;23;20029;-73
2022/11/23 03:48:23;;;;;;;4.10;3.90;;;;;;;7.30;100.00;99555.44;6186847;23;20366;-73
2022/11/23 03:50:49;;;;;;;4.10;3.90;;;;;;;7.59;100.00;99574.63;6126383;23;20708;-73
2022/11/23 03:53:16;;;;;;;4.00;3.80;;;;;;;7.58;100.00;99565.13;6194345;23;20016;-73
2022/11/23 03:55:45;;;;;;;7.78;3.78;;;;;;;7.59;100.00;99568.56;6122450;23;20056;-73
2022/11/23 03:58:11;;;;;;;4.35;4.15;;;;;;;7.59;100.00;99572.03;6157163;23;20024;-73
2022/11/23 04:00:38;;;;;;;3.97;3.78;;;;;;;7.62;100.00;99580.59;6149750;23;20019;-73
2022/11/23 04:03:04;;;;;;;4.03;3.83;;;;;;;7.45;100.00;99542.44;6191552;23;20699;-74
2022/11/23 04:05:31;;;;;;;4.55;4.30;;;;;;;7.17;100.00;99497.88;6156645;23;20368;-73
2022/11/23 04:07:57;;;;;;;4.63;4.32;;;;;;;7.58;100.00;99579.97;6196316;23;20102;-74
2022/11/23 04:10:23;;;;;;;4.80;4.40;;;;;;;7.30;100.00;99518.91;6153767;23;20032;-73
2022/11/23 04:12:51;;;;;;;4.30;4.00;;;;;;;7.59;100.00;99572.03;6174967;23;20024;-73
2022/11/23 04:15:18;;;;;;;4.30;4.10;;;;;;;7.34;100.00;99530.00;6164852;23;20030;-73
2022/11/23 04:17:45;;;;;;;4.22;4.03;;;;;;;7.59;100.00;99579.84;6191106;23;20020;-73
2022/11/23 04:20:12;;;;;;;3.60;3.50;;;;;;;6.73;100.00;99427.41;6163255;23;20088;-73
2022/11/23 04:22:39;;;;;;;4.43;4.22;;;;;;;7.43;100.00;99536.47;6161491;23;20093;-72
2022/11/23 04:25:06;;;;;;;4.25;3.80;;;;;;;7.46;100.00;99547.56;6173364;23;20016;-73
2022/11/23 04:27:32;;;;;;;6.63;4.35;;;;;;;7.59;100.00;99579.84;6158559;23;20020;-73
2022/11/23 04:29:58;;;;;;;4.00;3.80;;;;;;;7.60;100.00;99572.88;6151179;23;20030;-73
2022/11/23 04:32:25;;;;;;;4.50;4.20;;;;;;;7.43;100.00;99544.28;6192767;23;20024;-73
2022/11/23 04:34:51;;;;;;;4.20;4.00;;;;;;;7.60;100.00;99567.66;6152017;23;20020;-74
2022/11/23 04:37:17;;;;;;;4.00;3.80;;;;;;;6.44;100.00;99395.16;6160701;23;20387;-73
2022/11/23 04:39:44;;;;;;;3.85;3.70;;;;;;;7.61;100.00;99566.72;6152303;23;20433;-74
2022/11/23 04:42:11;;;;;;;4.05;3.85;;;;;;;7.44;100.00;99553.78;6179424;23;20012;-74
2022/11/23 04:44:38;;;;;;;4.97;4.68;;;;;;;7.08;100.00;99484.53;6152953;23;20032;-74
2022/11/23 04:47:04;;;;;;;4.05;3.85;;;;;;;7.06;100.00;99479.41;6180749;23;20027;-74
2022/11/23 04:49:30;;;;;;;4.10;3.75;;;;;;;7.62;100.00;99573.63;6155745;23;20088;-74
2022/11/23 04:51:57;;;;;;;4.45;4.13;;;;;;;7.10;100.00;99491.34;6178855;23;20077;-74
2022/11/23 04:54:24;;;;;;;3.95;3.75;;;;;;;7.29;100.00;99517.22;6139647;23;20074;-73
2022/11/23 04:56:50;;;;;;;4.10;3.90;;;;;;;7.28;100.00;99522.53;6179468;23;20013;-74
2022/11/23 04:59:18;;;;;;;5.18;4.78;;;;;;;7.37;100.00;99548.09;6129458;23;20645;-74
2022/11/23 05:01:44;;;;;;;4.82;4.13;;;;;;;7.39;100.00;99559.28;6186442;23;20630;-74
2022/11/23 05:04:11;;;;;;;16.35;4.28;;;;;;;7.54;100.00;99586.28;6164321;23;20021;-73
2022/11/23 05:06:43;;;;;;;3.90;3.70;;;;;;;7.13;100.00;99519.03;6184901;23;20617;-73
2022/11/23 05:09:09;;;;;;;4.03;3.83;;;;;;;7.37;100.00;99569.81;6157584;23;20089;-74
2022/11/23 05:11:35;;;;;;;5.07;4.32;;;;;;;7.34;100.00;99569.16;6178035;23;20035;-73
2022/11/23 05:14:02;;;;;;;4.57;4.38;;;;;;;7.53;100.00;99593.25;6160476;23;20032;-74
2022/11/23 05:16:28;;;;;;;4.20;4.00;;;;;;;7.48;100.00;99589.25;6179734;23;20036;-73
2022/11/23 05:18:55;;;;;;;4.38;4.07;;;;;;;7.47;100.00;99584.94;6161408;23;20024;-74
2022/11/23 05:21:21;;;;;;;4.18;3.97;;;;;;;7.11;100.00;99533.91;6148057;23;20032;-73
2022/11/23 05:23:48;;;;;;;4.53;4.28;;;;;;;7.45;100.00;99597.25;6188989;23;20024;-74
2022/11/23 05:26:14;;;;;;;5.22;4.63;;;;;;;7.28;100.00;99588.63;6148461;23;20078;-73
2022/11/23 05:28:40;;;;;;;4.40;4.10;;;;;;;7.41;100.00;99604.41;6179105;23;20566;-73
2022/11/23 05:31:07;;;;;;;3.95;3.70;;;;;;;7.25;100.00;99574.88;6158251;23;20036;-73
2022/11/23 05:33:34;;;;;;;8.55;4.28;;;;;;;7.14;100.00;99570.28;6187387;23;20045;-73
2022/11/23 05:36:01;;;;;;;3.97;3.83;;;;;;;7.20;100.00;99572.56;6157803;23;20035;-72
2022/11/23 05:38:27;;;;;;;4.15;3.85;;;;;;;7.39;100.00;99614.09;6149687;23;20033;-73
2022/11/23 05:40:53;;;;;;;4.88;4.57;;;;;;;7.26;100.00;99585.25;6161251;23;20085;-73
2022/11/23 05:43:21;;;;;;;3.80;3.65;;;;;;;6.96;100.00;99539.06;6148313;23;20402;-73
2022/11/23 05:45:47;;;;;;;4.22;4.03;;;;;;;7.36;100.00;99599.47;6157503;23;20033;-73
2022/11/23 05:48:14;;;;;;;4.05;3.85;;;;;;;7.19;100.00;99581.28;6148540;23;20042;-73
2022/11/23 05:50:40;;;;;;;4.15;3.95;;;;;;;7.10;100.00;99560.94;6178140;23;20478;-73
2022/11/23 05:53:07;;;;;;;4.35;4.07;;;;;;;7.34;100.00;99605.69;6130059;23;20028;-73
2022/11/23 05:55:34;;;;;;;6.03;4.22;;;;;;;7.33;100.00;99611.84;6168808;23;20008;-73
2022/11/23 05:58:00;;;;;;;4.43;4.13;;;;;;;6.83;100.00;99519.81;6148625;23;20028;-73
2022/11/23 06:00:27;;;;;;;4.35;4.15;;;;;;;7.29;100.00;99603.34;6160124;23;20031;-72
2022/11/23 06:02:58;;;;;;;4.10;3.90;;;;;;;7.29;100.00;99599.88;6152411;23;20109;-72
2022/11/23 06:05:24;;;;;;;5.13;4.72;;;;;;;6.78;100.00;99514.88;6185928;23;20092;-72
2022/11/23 06:07:52;;;;;;;4.25;3.95;;;;;;;7.13;100.00;99586.84;6148906;23;20357;-72
2022/11/23 06:10:19;;;;;;;4.72;4.43;;;;;;;6.86;100.00;99531.88;6133098;23;20404;-72
2022/11/23 06:12:45;;;;;;;7.90;4.43;;;;;;;7.11;100.00;99568.66;6179172;23;20407;-74
2022/11/23 06:15:12;;;;;;;4.68;4.38;;;;;;;6.81;100.00;99507.78;6158556;23;20606;-74
2022/11/23 06:17:38;;;;;;;4.20;4.00;;;;;;;7.12;100.00;99570.38;6157107;23;20688;-75
2022/11/23 06:20:05;;;;;;;6.82;4.47;;;;;;;7.27;100.00;99593.91;6159720;23;20033;-73
2022/11/23 06:22:32;;;;;;;4.40;4.20;;;;;;;7.27;100.00;99597.34;6133620;23;20023;-72
2022/11/23 06:24:58;;;;;;;4.82;4.53;;;;;;;7.29;100.00;99605.09;6146443;23;20025;-73
2022/11/23 06:27:25;;;;;;;5.43;5.03;;;;;;;6.97;100.00;99542.53;6181874;23;20754;-72
2022/11/23 06:29:51;;;;;;;4.50;4.07;;;;;;;6.21;100.00;99412.88;6154536;23;20020;-72
2022/11/23 06:32:18;;;;;;;4.85;4.40;;;;;;;7.04;100.00;99540.44;6191478;23;20564;-72
2022/11/23 06:34:44;;;;;;;4.50;4.20;;;;;;;7.28;100.00;99588.63;6150600;23;20009;-72
2022/11/23 06:37:11;;;;;;;4.20;4.00;;;;;;;6.93;100.00;99533.19;6182726;23;20017;-72
2022/11/23 06:39:39;;;;;;;4.30;4.10;;;;;;;7.25;100.00;99585.31;6152519;23;20017;-72
2022/11/23 06:42:05;;;;;;;4.43;4.13;;;;;;;7.23;100.00;99585.41;6181211;23;20025;-71
2022/11/23 06:44:51;;;;;;;7.38;5.05;;;;;;;7.20;100.00;99559.50;6021392;23;20037;-73
2022/11/23 06:47:18;;;;;;;5.13;4.75;;;;;;;7.27;100.00;99576.47;6176638;23;20058;-73
2022/11/23 06:49:51;;;;;;;4.25;3.95;;;;;;;6.91;100.00;99527.22;6158265;23;20045;-72
2022/11/23 06:52:17;;;;;;;4.38;4.00;;;;;;;7.06;100.00;99554.22;6156112;23;20028;-72
2022/11/23 06:54:45;;;;;;;4.70;4.40;;;;;;;7.05;100.00;99568.19;6192271;23;20019;-73
2022/11/23 06:57:11;;;;;;;6.20;4.78;;;;;;;6.84;100.00;99526.72;6153056;23;20524;-73
2022/11/23 06:59:38;;;;;;;4.00;3.80;;;;;;;6.95;100.00;99555.63;6163418;23;20023;-73
2022/11/23 07:02:10;;;;;;;4.03;3.83;;;;;;;6.90;100.00;99534.22;6150374;23;20288;-72
2022/11/23 07:04:37;;;;;;;4.30;4.10;;;;;;;7.03;100.00;99560.44;6188459;23;20031;-72
2022/11/23 07:07:03;;;;;;;3.90;3.70;;;;;;;6.22;100.00;99426.78;6153953;23;20117;-72
2022/11/23 07:09:29;;;;;;;4.35;4.00;;;;;;;6.90;100.00;99539.41;6157222;23;20034;-72
2022/11/23 07:11:56;;;;;;;4.10;3.90;;;;;;;6.93;100.00;99543.63;6151617;23;20021;-70
2022/11/23 07:14:23;;;;;;;4.57;4.05;;;;;;;5.72;100.00;99366.88;6161410;23;20046;-70
2022/11/23 07:16:49;;;;;;;4.07;3.88;;;;;;;6.60;100.00;99497.63;6156056;23;20013;-70
2022/11/23 07:19:15;;;;;;;4.50;4.20;;;;;;;6.97;100.00;99568.59;6165415;23;20028;-71
2022/11/23 07:21:44;;;;;;;4.00;3.80;;;;;;;5.56;100.00;99346.03;6159434;23;20042;-71
2022/11/23 07:24:10;;;;;;;10.93;4.22;;;;;;;7.10;100.00;99602.69;6183680;23;20036;-70
2022/11/23 07:26:36;;;;;;;5.18;4.88;;;;;;;6.99;100.00;99608.50;6162217;23;20528;-70
2022/11/23 07:29:03;;;;;;;4.30;4.00;;;;;;;6.95;100.00;99620.84;6182605;23;20559;-70
2022/11/23 07:31:29;;;;;;;6.57;4.10;;;;;;;6.92;100.00;99628.03;6128367;23;20640;-71
2022/11/23 07:33:56;;;;;;;4.47;4.28;;;;;;;6.45;100.00;99561.00;6144454;23;20021;-70
2022/11/23 07:36:22;;;;;;;4.78;4.28;;;;;;;6.74;100.00;99628.09;6142798;23;20029;-71
2022/11/23 07:38:48;;;;;;;4.10;3.90;;;;;;;6.75;100.00;99636.72;6152165;23;20013;-70
2022/11/23 07:41:15;;;;;;;13.45;4.10;;;;;;;6.47;100.00;99603.47;6162792;23;20015;-71
2022/11/23 07:43:41;;;;;;;4.57;4.07;;;;;;;6.23;100.00;99611.63;6126308;23;20490;-70
2022/11/23 07:46:08;;;;;;;4.10;3.90;;;;;;;6.34;100.00;99606.72;6179037;23;20532;-71
2022/11/23 07:48:34;;;;;;;5.45;5.15;;;;;;;6.06;100.00;99575.22;6127911;23;20028;-70
2022/11/23 07:51:02;;;;;;;11.13;4.35;;;;;;;6.19;100.00;99617.94;6181528;23;20020;-70
2022/11/23 07:53:28;;;;;;;3.95;3.75;;;;;;;6.60;100.00;99664.47;6150419;23;20021;-69
2022/11/23 07:55:57;;;;;;;4.50;4.10;;;;;;;6.29;100.00;99621.75;6188004;23;20045;-70
2022/11/23 07:58:24;;;;;;;4.70;4.30;;;;;;;6.60;100.00;99664.47;6151918;23;20031;-70
2022/11/23 08:00:51;;;;;;;4.70;4.28;;;;;;;5.39;100.00;99465.75;6202754;23;20012;-70
2022/11/23 08:03:17;;;;;;;5.05;4.60;;;;;;;6.53;100.00;99655.28;6153399;23;20029;-70
2022/11/23 08:05:54;;;;;;;3.80;3.70;;;;;;;5.95;100.00;99558.38;6191592;23;20087;-69
2022/11/23 08:08:20;;;;;;;4.20;4.00;;;;;;;6.71;100.00;99677.78;6159800;23;20025;-70
2022/11/23 08:10:46;;;;;;;4.25;4.05;;;;;;;6.11;100.00;99584.47;6144808;23;20036;-70
2022/11/23 08:13:20;;;;;;;4.47;4.28;;;;;;;6.51;100.00;99651.91;6185064;23;20028;-69
2022/11/23 08:15:46;;;;;;;4.10;3.90;;;;;;;6.67;100.00;99649.34;6150784;23;20025;-70
2022/11/23 08:18:20;;;;;;;6.70;6.20;;;;;;;6.82;100.00;99672.00;6149404;23;20025;-71
2022/11/23 08:20:46;;;;;;;4.75;4.45;;;;;;;6.87;100.00;99687.41;6191975;23;20015;-70
2022/11/23 08:23:12;;;;;;;4.18;3.97;;;;;;;6.93;100.00;99682.69;6158157;23;20578;-71
2022/11/23 08:25:39;;;;;;;5.38;4.88;;;;;;;6.97;100.00;99679.00;6180321;23;20036;-71
2022/11/23 08:28:06;;;;;;;4.00;3.80;;;;;;;6.64;100.00;99621.69;6153414;23;20025;-71
2022/11/23 08:30:33;;;;;;;9.77;3.95;;;;;;;7.06;100.00;99684.66;6189080;23;20035;-69
2022/11/23 08:33:05;;;;;;;4.75;4.50;;;;;;;7.13;100.00;99679.00;6153085;23;20613;-70
2022/11/23 08:35:38;;;;;;;4.07;3.88;;;;;;;7.20;100.00;99679.53;6176285;23;20056;-69
2022/11/23 08:38:07;;;;;;;4.10;3.90;;;;;;;7.25;100.00;99684.50;6148440;23;20094;-69
2022/11/23 08:40:34;;;;;;;4.82;4.15;;;;;;;7.05;100.00;99652.50;6156588;23;20084;-69
2022/11/23 08:43:00;;;;;;;4.75;4.45;;;;;;;7.39;100.00;99701.06;6173777;23;20029;-70
2022/11/23 08:45:27;;;;;;;4.78;4.50;;;;;;;6.81;100.00;99591.25;6156232;23;20037;-71
2022/11/23 08:47:58;;;;;;;4.20;3.90;;;;;;;7.31;100.00;99658.06;6150999;23;20392;-70
2022/11/23 08:50:25;;;;;;;10.88;4.53;;;;;;;7.64;100.00;99697.13;6191542;23;20088;-71
2022/11/23 08:52:56;;;;;;;4.38;4.13;;;;;;;7.54;100.00;99662.84;6153441;23;20353;-71
2022/11/23 08:55:24;;;;;;;4.25;4.05;;;;;;;7.13;100.00;99590.28;6164750;23;20048;-71
2022/11/23 08:57:54;;;;;;;5.05;4.68;;;;;;;7.51;100.00;99633.44;6152060;23;20094;-71
2022/11/23 09:00:20;;;;;;;7.78;4.32;;;;;;;7.49;100.00;99624.88;6178538;23;20356;-71
2022/11/23 09:02:47;;;;;;;4.57;4.38;;;;;;;8.02;100.00;99696.72;6123620;23;20966;-70
2022/11/23 09:05:13;;;;;;;5.43;4.93;;;;;;;7.71;100.00;99637.53;6164013;23;20028;-71
2022/11/23 09:07:40;;;;;;;3.90;3.70;;;;;;;7.75;100.00;99642.50;6156376;23;20095;-71
2022/11/23 09:10:07;;;;;;;4.82;4.53;;;;;;;7.86;100.00;99643.63;6178248;23;20152;-70
2022/11/23 09:12:33;;;;;;;4.32;4.13;;;;;;;7.85;100.00;99644.59;6149322;23;20064;-70
2022/11/23 09:14:59;;;;;;;4.38;4.18;;;;;;;7.93;100.00;99648.41;6192296;23;20045;-70
2022/11/23 09:17:26;;;;;;;6.30;5.03;;;;;;;8.28;100.00;99697.81;6158359;23;20033;-70
2022/11/23 09:19:52;;;;;;;4.78;4.40;;;;;;;8.30;100.00;99703.78;6157185;23;20475;-70
2022/11/23 09:22:19;;;;;;;4.78;4.25;;;;;;;8.39;100.00;99702.38;6185679;23;20044;-71
2022/11/23 09:24:45;;;;;;;4.70;4.40;;;;;;;8.15;100.00;99661.06;6153714;23;20009;-71
2022/11/23 09:27:12;;;;;;;4.10;3.90;;;;;;;8.17;100.00;99643.53;6177909;23;20114;-71
2022/11/23 09:29:38;;;;;;;4.00;3.80;;;;;;;8.12;99.75;99632.53;6150560;23;20040;-69
2022/11/23 09:32:04;;;;;;;8.45;4.43;;;;;;;8.30;98.89;99651.50;6188390;23;20020;-69
2022/11/23 09:34:31;;;;;;;4.15;3.95;;;;;;;8.65;97.90;99703.47;6147877;23;20212;-70
2022/11/23 09:36:58;;;;;;;5.30;4.85;;;;;;;8.45;97.85;99665.44;6150468;23;20527;-69
2022/11/23 09:39:24;;;;;;;4.78;4.43;;;;;;;8.66;96.43;99689.47;6148720;23;20020;-69
2022/11/23 09:42:00;;;;;;;5.82;4.57;;;;;;;8.88;96.48;99703.84;6149334;23;20438;-69
2022/11/23 09:44:51;;;;;;;8.32;5.28;;;;;;;8.90;94.79;99691.50;6150412;23;20040;-69
2022/11/23 09:47:56;;;;;;;5.07;4.63;;;;;;;8.95;93.96;99686.84;6147359;23;20012;-69
2022/11/23 09:50:44;;;;;;;4.85;4.53;;;;;;;9.00;92.74;99679.56;6149885;23;20024;-71
2022/11/23 09:53:17;;;;;;;6.78;4.55;;;;;;;9.15;92.83;99683.00;6123795;23;20062;-70
2022/11/23 09:55:51;;;;;;;5.35;5.03;;;;;;;9.03;92.61;99647.13;6183155;23;20091;-69
2022/11/23 09:58:20;;;;;;;17.63;5.25;;;;;;;9.24;91.01;99685.06;6155825;23;20189;-69
2022/11/23 10:00:49;;;;;;;4.68;4.32;;;;;;;8.38;89.66;99509.88;6159253;23;20083;-69
2022/11/23 10:03:17;;;;;;;4.60;4.40;;;;;;;9.15;88.88;99630.66;6179004;23;20089;-69
2022/11/23 10:05:52;;;;;;;4.82;4.53;;;;;;;9.25;88.62;99636.97;6149225;23;20009;-68
2022/11/23 10:08:19;;;;;;;4.90;4.60;;;;;;;9.44;86.46;99638.41;6175569;23;20390;-69
2022/11/23 10:10:54;;;;;;;4.45;4.13;;;;;;;9.48;86.19;99632.03;6148959;23;20024;-69
2022/11/23 10:13:21;;;;;;;4.75;4.55;;;;;;;9.66;85.56;99651.81;6174637;23;20099;-70
2022/11/23 10:16:26;;;;;;;4.32;4.13;;;;;;;9.54;84.23;99600.19;6150454;23;20019;-71
2022/11/23 10:19:18;;;;;;;5.88;4.53;;;;;;;10.06;83.69;99630.81;6145882;23;20078;-69
2022/11/23 10:22:19;;;;;;;5.10;4.78;;;;;;;10.22;82.64;99627.16;6179233;23;20024;-68
2022/11/23 10:24:50;;;;;;;5.28;4.88;;;;;;;10.14;82.50;99610.19;6143239;23;20017;-69
2022/11/23 10:27:20;;;;;;;7.38;4.30;;;;;;;8.77;81.87;99388.81;6185602;23;20031;-70
2022/11/23 10:29:47;;;;;;;4.57;4.38;;;;;;;10.04;82.78;99595.16;6147455;23;20042;-69
2022/11/23 10:32:31;;;;;;;9.07;4.88;;;;;;;10.14;81.91;99581.34;6180291;23;20454;-69
2022/11/23 10:35:01;;;;;;;4.82;4.53;;;;;;;9.82;82.74;99525.84;6143616;23;20036;-69
2022/11/23 10:37:27;;;;;;;5.05;4.65;;;;;;;10.16;82.62;99565.47;6174686;23;20033;-67
2022/11/23 10:39:53;;;;;;;4.90;4.70;;;;;;;10.47;81.67;99545.88;6150861;23;20060;-69
2022/11/23 10:42:35;;;;;;;4.60;4.30;;;;;;;8.84;80.21;99221.84;6179212;23;20103;-69
2022/11/23 10:45:03;;;;;;;5.50;4.90;;;;;;;10.98;78.32;99542.25;6147477;23;20023;-69
2022/11/23 10:47:34;;;;;;;5.32;4.68;;;;;;;10.78;76.05;99497.31;6176614;23;20028;-69
2022/11/23 10:50:01;;;;;;;5.45;5.05;;;;;;;10.54;76.79;99470.19;6152089;23;20455;-69
2022/11/23 10:52:31;;;;;;;7.82;4.85;;;;;;;10.25;76.67;99439.00;6154624;23;20024;-69
2022/11/23 10:55:03;;;;;;;5.10;4.80;;;;;;;10.08;77.42;99431.47;6181349;23;20029;-69
2022/11/23 10:57:33;;;;;;;4.78;4.40;;;;;;;10.21;78.07;99455.91;6148739;23;20023;-68
2022/11/23 11:00:03;;;;;;;9.32;5.05;;;;;;;10.40;78.43;99478.22;6184662;23;20025;-69
2022/11/23 11:02:44;;;;;;;4.60;4.40;;;;;;;10.32;77.81;99455.16;6148170;23;20044;-68
2022/11/23 11:05:31;;;;;;;5.22;4.65;;;;;;;10.49;77.36;99460.03;6182227;23;20050;-70
2022/11/23 11:08:19;;;;;;;4.70;4.30;;;;;;;10.51;76.02;99438.97;6160905;23;20052;-70
2022/11/23 11:10:51;;;;;;;4.70;4.35;;;;;;;10.47;76.37;99429.63;6170582;23;20005;-69
2022/11/23 11:13:36;;;;;;;4.45;4.25;;;;;;;10.29;77.69;99437.84;6186097;23;20079;-70
2022/11/23 11:16:16;;;;;;;4.55;4.25;;;;;;;9.37;78.07;99269.63;6143719;23;20050;-70
2022/11/23 11:18:43;;;;;;;4.60;4.40;;;;;;;10.40;77.77;99437.09;6151649;23;20021;-69
2022/11/23 11:21:21;;;;;;;8.98;6.43;;;;;;;10.35;77.27;99413.00;6178499;23;20091;-69
2022/11/23 11:23:55;;;;;;;4.82;4.53;;;;;;;9.92;76.24;99346.09;6154617;23;20017;-69
2022/11/23 11:26:23;;;;;;;6.28;4.57;;;;;;;10.22;76.45;99418.22;6179481;23;20028;-69
2022/11/23 11:28:52;;;;;;;4.60;4.40;;;;;;;10.09;76.71;99404.34;6130665;23;20043;-69
2022/11/23 11:31:51;;;;;;;5.20;4.80;;;;;;;10.05;77.19;99413.38;6141486;23;20415;-69
2022/11/23 11:34:22;;;;;;;4.55;4.32;;;;;;;9.94;76.04;99393.13;6178805;23;20103;-69
2022/11/23 11:36:56;;;;;;;4.45;4.15;;;;;;;10.01;76.68;99411.91;6155437;23;20403;-68
2022/11/23 11:39:40;;;;;;;4.72;4.43;;;;;;;10.08;77.00;99416.63;6153128;23;20021;-70
2022/11/23 11:42:16;;;;;;;6.85;4.30;;;;;;;10.02;76.05;99390.81;6154401;23;20050;-69